Grundy, VA

5:10 PM EDT on July 31, 2014 (GMT -0400)
Ramey Flats (KVACLINT2) Elev 1795 ft | 37.21 °N, 82.44 °W | Change Station

Current weather conditions updated 5 minutes ago

Clear
Clear
78.8 °F
Feels Like 81 °F
N
0.0
Wind Variable Wind from NNE
Gusts 4.0 mph

Tomorrow is forecast to be Much Cooler than today. A few thunderstorms possible.

Today
High -- | Low -- °F
--% Chance of Precip.
Yesterday
High -- | Low -- °F
Precip. -- in
6:32 AM 8:36 PM
Waxing Crescent, 21% visible
Pressure 30.17 in
Visibility 10.0 miles
Clouds Clear
Heat Index 81 °F
Dew Point 66 °F
Humidity 66%
Rainfall 0.00 in
Snow Depth Not available.
UV 6 out of 12
Pollen 5.10 out of 12
Air Quality Not available.
Flu Activity Not available.
METAR KJFZ 312055Z AUTO 29005KT 10SM CLR 26/14 A3017 RMK AO2 T02590143

More Conditions Fewer Conditions

Pressure 30.17 in
Visibility 10.0 miles
Clouds Clear
Heat Index 81 °F
Dew Point 66 °F
Humidity 66%
Rainfall 0.00 in
Snow Depth Not available.
UV 6 out of 12
Pollen 5.10 out of 12
Air Quality Not available.
Flu Activity Not available.
METAR KJFZ 312055Z AUTO 29005KT 10SM CLR 26/14 A3017 RMK AO2 T02590143

More Conditions Fewer Conditions

10-Day Weather Forecast

Almanac

Astronomy

Jul. 31, 2014 Rise Set
Actual Time 6:32 AM EDT 8:36 PM EDT
Civil Twilight 6:03 AM EDT 9:05 PM EDT
Nautical Twilight 5:27 AM EDT 9:40 PM EDT
Astronomical Twilight 4:49 AM EDT 10:18 PM EDT
Moon 10:51 AM EDT 10:56 PM EDT
Length of Visible Light 15h 02m
Length of Day
14h 04m
Tomorrow will be 1m 46s shorter.
Waxing Crescent, 21% of the Moon is Illuminated
Today
Waxing Crescent
Aug 3
First Quarter
Aug 10
Full
Aug 17
Last Quarter
Aug 25
New

Today's Extremes

State Highs State Lows

Community

WunderPhotos

Upload Photos

1,739,455 photos uploaded!

Nearby

Snow Depth

Station Depth Elevation
No new snow has been reported.

Earthquake Activity

City Distance Mag. Time & Date
No recent earthquake activity has been reported nearby.
Minimum magnitude displayed is 2.5.

Coastal Water Temperatures

Place Temperature
No Stations Reporting

Nearby Weather Stations

Station Location Temp. Heat Index Dew Point Humidity Wind Precip. Elev Updated Type
Ramey Flats, Clintwood, VA 78.8 °F 81 °F 66 °F 66% NNE  at  0.0 mph 0.00 in / hr 1795 ft 5:04 PM EDT Normal
Southwest Virginia, 4 miles SSE, Nora, VA 74.1 °F 76 °F 62 °F 65% South  at  2.0 mph 0.00 in / hr 2650 ft 4:50 PM EDT Normal

Show More Stations Show Fewer Stations